Bonanza Express — EHYT — position and weather

sailwx.info

Track history (hours):
 
Tides and Currents Weather Stations Pressure Air Temp Water Temp Dewpoint Dewpoint Depression Visibility Wind Speed Wind Dir Waves Ship Positions

Bonanza Express

Last reported at 2018-Aug-16 20:00 UTC. Time now 2018-Aug-16 20:18 UTC.
Position N 28°13' W 015°53'.

Length 96 m; draft 3.6 m.

Type: High speed craft. MMSI: 224768000.

Date/timePositionNaut miles runAvg speedWind from/ knotsBaromVisibWave heightAir tempDewpointWater temp
2018-Aug-16 20:00N 28°13' W 015°53'1529.6
2018-Aug-16 19:30N 28°23' W 016°06'918.7
2018-Aug-16 19:00N 28°28' W 016°15'0 0.0
2018-Aug-16 18:30N 28°28' W 016°15'4 8.0
2018-Aug-16 18:00N 28°26' W 016°11'2932.3
2018-Aug-16 17:07N 28°07' W 015°46'7 5.6
2018-Aug-16 15:53N 28°12' W 015°51'1232.7
2018-Aug-16 15:30N 28°20' W 016°01'1428.1
2018-Aug-16 15:00N 28°28' W 016°15'0 0.4
2018-Aug-16 14:30N 28°28' W 016°15'4 7.5
2018-Aug-16 14:00N 28°26' W 016°11'1733.0
2018-Aug-16 13:30N 28°15' W 015°58'1411.7
2018-Aug-16 12:16N 28°06' W 015°44'1429.3
2018-Aug-16 11:47N 28°15' W 015°57'829.7
2018-Aug-16 11:31N 28°21' W 016°04'1224.4
2018-Aug-16 11:01N 28°28' W 016°15'0 0.5
2018-Aug-16 10:31N 28°28' W 016°15'4 7.6
2018-Aug-16 10:00N 28°27' W 016°11'1733.9
2018-Aug-16 09:30N 28°15' W 015°56'14 9.9
2018-Aug-16 08:07N 28°06' W 015°44'1832.7
2018-Aug-16 07:34N 28°17' W 016°01'232.7
2018-Aug-16 07:30N 28°18' W 016°03'1530.0
2018-Aug-16 07:00N 28°29' W 016°14'1 1.3
2018-Aug-16 06:30N 28°28' W 016°15'816.8
2018-Aug-16 06:01N 28°23' W 016°08'1528.1
2018-Aug-16 05:29N 28°13' W 015°54'11 1.2
2018-Aug-15 20:15N 28°06' W 015°45'1532.2
2018-Aug-15 19:47N 28°15' W 015°58'932.1
2018-Aug-15 19:31N 28°21' W 016°05'1122.0
2018-Aug-15 19:00N 28°28' W 016°15'0 0.0
2018-Aug-15 18:30N 28°28' W 016°15'2 4.3
2018-Aug-15 18:01N 28°27' W 016°13'2234.1
2018-Aug-15 17:21N 28°12' W 015°54'1232.5
2018-Aug-15 17:00N 28°06' W 015°43'0 0.3
2018-Aug-15 16:12N 28°06' W 015°43'1230.7
2018-Aug-15 15:49N 28°14' W 015°53'1032.7
2018-Aug-15 15:30N 28°21' W 016°02'1427.7
2018-Aug-15 15:00N 28°28' W 016°15'0 0.6
2018-Aug-15 14:30N 28°28' W 016°15'3 5.4
2018-Aug-15 14:00N 28°27' W 016°12'1632.1
2018-Aug-15 13:30N 28°16' W 015°58'1732.4
2018-Aug-15 12:59N 28°06' W 015°43'0 0.8
2018-Aug-15 12:25N 28°06' W 015°43'0 0.0
2018-Aug-15 12:00N 28°06' W 015°43'0 0.0
2018-Aug-15 11:25N 28°06' W 015°43'0 0.4
2018-Aug-15 10:53N 28°06' W 015°43'1126.6
2018-Aug-15 10:29N 28°13' W 015°52'1531.3
2018-Aug-15 10:00N 28°22' W 016°04'1121.6
2018-Aug-15 09:30N 28°28' W 016°15'0 0.0
2018-Aug-15 09:00N 28°28' W 016°15'715.1
2018-Aug-15 08:30N 28°24' W 016°08'1728.2
2018-Aug-15 07:54N 28°13' W 015°53'1127.1
2018-Aug-15 07:29N 28°06' W 015°43'0 0.0
2018-Aug-14 22:30N 28°06' W 015°43'0 0.0
2018-Aug-14 21:53N 28°06' W 015°43'0 0.0
2018-Aug-14 21:29N 28°06' W 015°43'0 0.0
2018-Aug-14 21:00N 28°06' W 015°43'0 0.0
2018-Aug-14 20:30N 28°06' W 015°43'815.4
2018-Aug-14 20:00N 28°10' W 015°50'1530.9
2018-Aug-14 19:30N 28°20' W 016°03'1325.6
2018-Aug-14 19:00N 28°28' W 016°15'0 0.5
2018-Aug-14 18:30N 28°28' W 016°15'3 6.7
2018-Aug-14 18:00N 28°26' W 016°12'1632.6
2018-Aug-14 17:30N 28°16' W 015°58'1632.3
2018-Aug-14 17:00N 28°06' W 015°43'0 0.9
2018-Aug-14 16:29N 28°06' W 015°43'814.9
2018-Aug-14 15:57N 28°11' W 015°50'1430.6
2018-Aug-14 15:30N 28°20' W 016°01'1429.0
2018-Aug-14 15:00N 28°29' W 016°14'1 1.3
2018-Aug-14 14:30N 28°28' W 016°15'2 3.7
2018-Aug-14 14:00N 28°28' W 016°13'1733.8
2018-Aug-14 13:31N 28°16' W 015°59'1713.5
2018-Aug-14 12:14N 28°06' W 015°43'1729.5
2018-Aug-14 11:39N 28°17' W 015°58'430.4
2018-Aug-14 11:31N 28°19' W 016°02'1428.8
2018-Aug-14 11:01N 28°29' W 016°14'1 1.3
2018-Aug-14 10:27N 28°28' W 016°15'3 6.8
2018-Aug-14 10:01N 28°27' W 016°11'2932.8
2018-Aug-14 09:07N 28°08' W 015°46'4 4.5
2018-Aug-14 08:16N 28°06' W 015°43'1628.9
2018-Aug-14 07:44N 28°15' W 015°57'731.7
2018-Aug-14 07:30N 28°20' W 016°02'1427.1
2018-Aug-14 07:00N 28°28' W 016°15'1 1.7
2018-Aug-14 06:31N 28°29' W 016°14'1326.0
2018-Aug-14 06:00N 28°20' W 016°03'1927.3
2018-Aug-14 05:19N 28°08' W 015°46'4 0.4
2018-Aug-13 20:25N 28°06' W 015°43'1225.4
2018-Aug-13 19:57N 28°13' W 015°54'1328.7
2018-Aug-13 19:30N 28°21' W 016°05'1122.7
2018-Aug-13 19:00N 28°28' W 016°15'0 0.3
2018-Aug-13 18:31N 28°28' W 016°15'816.8
2018-Aug-13 18:00N 28°24' W 016°07'2631.7
2018-Aug-13 17:11N 28°07' W 015°44'1 1.8
2018-Aug-13 16:25N 28°06' W 015°43'1330.0
2018-Aug-13 16:00N 28°13' W 015°54'1530.1
2018-Aug-13 15:31N 28°23' W 016°07'917.2
2018-Aug-13 15:00N 28°28' W 016°15'0 0.0
2018-Aug-13 14:30N 28°28' W 016°15'2 4.7
2018-Aug-13 14:00N 28°27' W 016°13'1732.7
2018-Aug-13 13:30N 28°15' W 015°59'2 1.2
2018-Aug-13 11:42N 28°17' W 015°58'630.0
2018-Aug-13 11:31N 28°21' W 016°03'1325.4
2018-Aug-13 11:00N 28°29' W 016°14'0 0.8
2018-Aug-13 10:30N 28°28' W 016°15'612.7
2018-Aug-13 10:00N 28°24' W 016°10'3018.4
2018-Aug-13 08:24N 28°06' W 015°43'1329.7
2018-Aug-13 07:57N 28°14' W 015°54'1330.6
2018-Aug-13 07:30N 28°23' W 016°06'918.3
2018-Aug-13 07:01N 28°28' W 016°15'1 1.7
2018-Aug-13 06:31N 28°29' W 016°14'1020.9
2018-Aug-13 06:01N 28°21' W 016°06'1525.7
2018-Aug-13 05:25N 28°12' W 015°52'10 1.2
2018-Aug-12 21:07N 28°06' W 015°43'1329.0
2018-Aug-12 20:40N 28°15' W 015°53'530.8
2018-Aug-12 20:30N 28°18' W 015°57'1530.5
2018-Aug-12 20:01N 28°27' W 016°11'3 6.4
2018-Aug-12 19:30N 28°28' W 016°15'0 0.0
2018-Aug-12 19:00N 28°28' W 016°15'1 1.9
2018-Aug-12 18:30N 28°29' W 016°14'1224.0
2018-Aug-12 18:00N 28°20' W 016°04'1923.1
2018-Aug-12 17:11N 28°09' W 015°47'4 3.3
2018-Aug-12 15:54N 28°12' W 015°49'1331.8
2018-Aug-12 15:30N 28°22' W 015°60'1530.0
2018-Aug-12 15:00N 28°29' W 016°14'1 1.3
2018-Aug-12 14:30N 28°28' W 016°15'3 6.6
2018-Aug-12 14:00N 28°26' W 016°12'1631.8
2018-Aug-12 13:30N 28°15' W 015°59'9 2.9
2018-Aug-12 10:25N 28°11' W 015°49'1432.5
2018-Aug-12 10:00N 28°21' W 016°00'1529.9
2018-Aug-12 09:30N 28°29' W 016°14'1 1.1
2018-Aug-12 09:00N 28°28' W 016°15'1021.0
2018-Aug-12 08:30N 28°21' W 016°07'2232.2
2018-Aug-12 07:49N 28°08' W 015°46'3 0.3
2018-Aug-11 20:06N 28°06' W 015°43'1432.1
2018-Aug-11 19:40N 28°15' W 015°56'533.7
2018-Aug-11 19:30N 28°18' W 015°60'1633.0
2018-Aug-11 19:00N 28°29' W 016°14'1 1.8
2018-Aug-11 18:30N 28°28' W 016°15'3 6.0
2018-Aug-11 18:00N 28°26' W 016°13'1732.5
2018-Aug-11 17:29N 28°14' W 015°59'13 9.7
2018-Aug-11 16:05N 28°07' W 015°46'431.4
2018-Aug-11 15:57N 28°09' W 015°50'1432.0
2018-Aug-11 15:31N 28°19' W 016°01'1529.5
2018-Aug-11 15:00N 28°29' W 016°14'0 0.9
2018-Aug-11 14:30N 28°28' W 016°15'0 0.0
2018-Aug-11 13:59N 28°28' W 016°15'0 0.0
2018-Aug-11 13:30N 28°28' W 016°15'0 0.0
2018-Aug-11 13:00N 28°28' W 016°15'3 5.9
2018-Aug-11 12:30N 28°26' W 016°13'1632.3
2018-Aug-11 12:00N 28°16' W 015°58'1511.5
2018-Aug-11 10:41N 28°07' W 015°45'1431.0
2018-Aug-11 10:14N 28°15' W 015°57'832.0
2018-Aug-11 10:00N 28°21' W 016°03'1325.5
2018-Aug-11 09:30N 28°28' W 016°15'0 0.1
2018-Aug-11 09:01N 28°28' W 016°15'1019.1
2018-Aug-11 08:30N 28°23' W 016°06'1730.8
2018-Aug-11 07:58N 28°12' W 015°51'1 0.1
2018-Aug-10 20:08N 28°12' W 015°50'429.3
2018-Aug-10 20:00N 28°14' W 015°53'1529.9
2018-Aug-10 19:31N 28°24' W 016°06'917.4
2018-Aug-10 19:00N 28°28' W 016°15'0 0.2
2018-Aug-10 18:30N 28°28' W 016°15'815.6
2018-Aug-10 18:00N 28°22' W 016°09'16 7.5
2018-Aug-10 15:51N 28°13' W 015°54'1030.3
2018-Aug-10 15:30N 28°20' W 016°02'1427.0
2018-Aug-10 15:00N 28°28' W 016°15'0 0.6
2018-Aug-10 14:30N 28°28' W 016°15'4 8.3
2018-Aug-10 14:00N 28°26' W 016°11'1731.2
2018-Aug-10 13:28N 28°15' W 015°57'1 0.5
2018-Aug-10 11:43N 28°14' W 015°57'731.0
2018-Aug-10 11:30N 28°19' W 016°02'1529.7
2018-Aug-10 11:00N 28°29' W 016°14'1 1.1
2018-Aug-10 10:30N 28°28' W 016°15'4 8.9
2018-Aug-10 10:01N 28°26' W 016°11'1631.7
2018-Aug-10 09:30N 28°15' W 015°57'14 9.7
2018-Aug-10 08:05N 28°07' W 015°44'832.1
2018-Aug-10 07:50N 28°12' W 015°51'1132.8
2018-Aug-10 07:30N 28°19' W 016°00'1631.3
2018-Aug-10 07:00N 28°29' W 016°14'1 1.2
2018-Aug-10 06:31N 28°28' W 016°15'714.6
2018-Aug-10 06:00N 28°24' W 016°08'1729.0
2018-Aug-10 05:24N 28°12' W 015°53'3 0.3
2018-Aug-09 20:03N 28°12' W 015°50'129.3
2018-Aug-09 20:00N 28°12' W 015°51'1529.7
2018-Aug-09 19:31N 28°22' W 016°04'1223.2
2018-Aug-09 19:00N 28°28' W 016°15'0 0.2
2018-Aug-09 18:31N 28°28' W 016°15'612.3
2018-Aug-09 18:00N 28°25' W 016°09'1631.2
2018-Aug-09 17:30N 28°17' W 015°54'1411.2
2018-Aug-09 16:14N 28°06' W 015°43'1028.8
2018-Aug-09 15:53N 28°13' W 015°51'1230.3
2018-Aug-09 15:30N 28°20' W 016°01'1529.2
2018-Aug-09 15:00N 28°29' W 016°14'1 1.3
2018-Aug-09 14:30N 28°28' W 016°15'3 5.6
2018-Aug-09 14:00N 28°27' W 016°12'1932.6
2018-Aug-09 13:26N 28°14' W 015°57'2 1.3
2018-Aug-09 11:46N 28°14' W 015°54'831.5
2018-Aug-09 11:31N 28°19' W 016°01'1529.8
2018-Aug-09 11:00N 28°29' W 016°14'1 1.2
2018-Aug-09 10:30N 28°28' W 016°15'4 9.0
2018-Aug-09 10:01N 28°25' W 016°11'2032.0
2018-Aug-09 09:22N 28°12' W 015°53'8 6.5
2018-Aug-09 08:06N 28°07' W 015°46'1232.3
2018-Aug-09 07:44N 28°14' W 015°56'733.4
2018-Aug-09 07:30N 28°19' W 016°02'1428.0
2018-Aug-09 07:00N 28°28' W 016°15'0 0.7
2018-Aug-09 06:30N 28°29' W 016°14'1122.3
2018-Aug-09 06:00N 28°21' W 016°05'1326.1
2018-Aug-09 05:30N 28°12' W 015°54'10 1.1
2018-Aug-08 20:14N 28°06' W 015°45'1129.4
2018-Aug-08 19:52N 28°13' W 015°54'1130.0
2018-Aug-08 19:30N 28°21' W 016°03'1325.4
2018-Aug-08 19:00N 28°28' W 016°15'0 0.5
2018-Aug-08 18:30N 28°28' W 016°15'4 7.4
2018-Aug-08 18:00N 28°26' W 016°11'1732.0
2018-Aug-08 17:28N 28°16' W 015°56'1512.0
2018-Aug-08 16:13N 28°06' W 015°43'1029.8
2018-Aug-08 15:54N 28°13' W 015°51'1230.7
2018-Aug-08 15:31N 28°21' W 016°01'1428.3
2018-Aug-08 15:00N 28°29' W 016°14'0 0.9
2018-Aug-08 14:30N 28°28' W 016°15'4 8.5
2018-Aug-08 14:01N 28°25' W 016°12'1731.2
2018-Aug-08 13:28N 28°14' W 015°57'1531.3
2018-Aug-08 13:00N 28°06' W 015°43'10 9.5
2018-Aug-08 11:55N 28°13' W 015°52'1229.7
2018-Aug-08 11:30N 28°21' W 016°02'1326.2
2018-Aug-08 11:00N 28°29' W 016°15'0 0.8
2018-Aug-08 10:30N 28°28' W 016°15'612.8
2018-Aug-08 10:01N 28°23' W 016°11'1732.7
2018-Aug-08 09:29N 28°12' W 015°56'11 8.1
2018-Aug-08 08:08N 28°07' W 015°45'1231.2
2018-Aug-08 07:45N 28°13' W 015°56'832.3
2018-Aug-08 07:30N 28°19' W 016°02'1429.2
2018-Aug-08 07:00N 28°29' W 016°14'1 1.1
2018-Aug-08 06:30N 28°28' W 016°15'817.0
2018-Aug-08 06:01N 28°22' W 016°08'1928.8
2018-Aug-08 05:21N 28°11' W 015°51'925.3
2018-Aug-08 05:00N 28°06' W 015°43'16 1.7
2018-Aug-07 19:49N 28°16' W 015°57'929.7
2018-Aug-07 19:30N 28°22' W 016°05'1121.8
2018-Aug-07 19:00N 28°28' W 016°15'0 0.1
2018-Aug-07 18:30N 28°28' W 016°15'510.8
2018-Aug-07 18:01N 28°24' W 016°11'2232.1
2018-Aug-07 17:19N 28°11' W 015°51'9 7.5
2018-Aug-07 16:11N 28°06' W 015°43'1130.7
2018-Aug-07 15:49N 28°14' W 015°52'1032.1
2018-Aug-07 15:30N 28°20' W 016°00'1529.5
2018-Aug-07 15:00N 28°29' W 016°14'1 1.1
2018-Aug-07 14:30N 28°28' W 016°15'4 7.8
2018-Aug-07 14:01N 28°25' W 016°13'1631.5
2018-Aug-07 13:29N 28°14' W 015°59'1631.8
2018-Aug-07 13:00N 28°06' W 015°44'1 1.2
2018-Aug-07 12:20N 28°06' W 015°43'1028.6
2018-Aug-07 12:00N 28°11' W 015°52'1530.8
2018-Aug-07 11:31N 28°21' W 016°05'1122.5
2018-Aug-07 11:00N 28°28' W 016°15'0 0.0
2018-Aug-07 10:30N 28°28' W 016°15'714.4
2018-Aug-07 10:00N 28°21' W 016°12'2631.5
2018-Aug-07 09:11N 28°08' W 015°48'10 7.4
2018-Aug-07 07:50N 28°14' W 015°56'1032.2
2018-Aug-07 07:30N 28°21' W 016°04'1122.8
2018-Aug-07 07:00N 28°28' W 016°15'0 0.5
2018-Aug-07 06:30N 28°28' W 016°15'1121.4
2018-Aug-07 06:00N 28°20' W 016°07'1427.0
2018-Aug-07 05:29N 28°12' W 015°54'10 1.1
2018-Aug-06 20:12N 28°06' W 015°44'  
Track history (hours):
 
Tides and Currents Weather Stations Pressure Air Temp Water Temp Dewpoint Dewpoint Depression Visibility Wind Speed Wind Dir Waves Ship Positions

Bonanza Express

Last reported at 2018-Aug-16 20:00 UTC. Time now 2018-Aug-16 20:18 UTC.
Position N 28°13' W 015°53'.

Length 96 m; draft 3.6 m.

Type: High speed craft. MMSI: 224768000.

Date/timePositionNaut miles runAvg speedWind from/ knotsBaromVisibWave heightAir tempDewpointWater temp
2018-Aug-16 20:00N 28°13' W 015°53'1529.6
2018-Aug-16 19:30N 28°23' W 016°06'918.7
2018-Aug-16 19:00N 28°28' W 016°15'0 0.0
2018-Aug-16 18:30N 28°28' W 016°15'4 8.0
2018-Aug-16 18:00N 28°26' W 016°11'2932.3
2018-Aug-16 17:07N 28°07' W 015°46'7 5.6
2018-Aug-16 15:53N 28°12' W 015°51'1232.7
2018-Aug-16 15:30N 28°20' W 016°01'1428.1
2018-Aug-16 15:00N 28°28' W 016°15'0 0.4
2018-Aug-16 14:30N 28°28' W 016°15'4 7.5
2018-Aug-16 14:00N 28°26' W 016°11'1733.0
2018-Aug-16 13:30N 28°15' W 015°58'1411.7
2018-Aug-16 12:16N 28°06' W 015°44'1429.3
2018-Aug-16 11:47N 28°15' W 015°57'829.7
2018-Aug-16 11:31N 28°21' W 016°04'1224.4
2018-Aug-16 11:01N 28°28' W 016°15'0 0.5
2018-Aug-16 10:31N 28°28' W 016°15'4 7.6
2018-Aug-16 10:00N 28°27' W 016°11'1733.9
2018-Aug-16 09:30N 28°15' W 015°56'14 9.9
2018-Aug-16 08:07N 28°06' W 015°44'1832.7
2018-Aug-16 07:34N 28°17' W 016°01'232.7
2018-Aug-16 07:30N 28°18' W 016°03'1530.0
2018-Aug-16 07:00N 28°29' W 016°14'1 1.3
2018-Aug-16 06:30N 28°28' W 016°15'816.8
2018-Aug-16 06:01N 28°23' W 016°08'1528.1
2018-Aug-16 05:29N 28°13' W 015°54'11 1.2
2018-Aug-15 20:15N 28°06' W 015°45'1532.2
2018-Aug-15 19:47N 28°15' W 015°58'932.1
2018-Aug-15 19:31N 28°21' W 016°05'1122.0
2018-Aug-15 19:00N 28°28' W 016°15'0 0.0
2018-Aug-15 18:30N 28°28' W 016°15'2 4.3
2018-Aug-15 18:01N 28°27' W 016°13'2234.1
2018-Aug-15 17:21N 28°12' W 015°54'1232.5
2018-Aug-15 17:00N 28°06' W 015°43'0 0.3
2018-Aug-15 16:12N 28°06' W 015°43'1230.7
2018-Aug-15 15:49N 28°14' W 015°53'1032.7
2018-Aug-15 15:30N 28°21' W 016°02'1427.7
2018-Aug-15 15:00N 28°28' W 016°15'0 0.6
2018-Aug-15 14:30N 28°28' W 016°15'3 5.4
2018-Aug-15 14:00N 28°27' W 016°12'1632.1
2018-Aug-15 13:30N 28°16' W 015°58'1732.4
2018-Aug-15 12:59N 28°06' W 015°43'0 0.8
2018-Aug-15 12:25N 28°06' W 015°43'0 0.0
2018-Aug-15 12:00N 28°06' W 015°43'0 0.0
2018-Aug-15 11:25N 28°06' W 015°43'0 0.4
2018-Aug-15 10:53N 28°06' W 015°43'1126.6
2018-Aug-15 10:29N 28°13' W 015°52'1531.3
2018-Aug-15 10:00N 28°22' W 016°04'1121.6
2018-Aug-15 09:30N 28°28' W 016°15'0 0.0
2018-Aug-15 09:00N 28°28' W 016°15'715.1
2018-Aug-15 08:30N 28°24' W 016°08'1728.2
2018-Aug-15 07:54N 28°13' W 015°53'1127.1
2018-Aug-15 07:29N 28°06' W 015°43'0 0.0
2018-Aug-14 22:30N 28°06' W 015°43'0 0.0
2018-Aug-14 21:53N 28°06' W 015°43'0 0.0
2018-Aug-14 21:29N 28°06' W 015°43'0 0.0
2018-Aug-14 21:00N 28°06' W 015°43'0 0.0
2018-Aug-14 20:30N 28°06' W 015°43'815.4
2018-Aug-14 20:00N 28°10' W 015°50'1530.9
2018-Aug-14 19:30N 28°20' W 016°03'1325.6
2018-Aug-14 19:00N 28°28' W 016°15'0 0.5
2018-Aug-14 18:30N 28°28' W 016°15'3 6.7
2018-Aug-14 18:00N 28°26' W 016°12'1632.6
2018-Aug-14 17:30N 28°16' W 015°58'1632.3
2018-Aug-14 17:00N 28°06' W 015°43'0 0.9
2018-Aug-14 16:29N 28°06' W 015°43'814.9
2018-Aug-14 15:57N 28°11' W 015°50'1430.6
2018-Aug-14 15:30N 28°20' W 016°01'1429.0
2018-Aug-14 15:00N 28°29' W 016°14'1 1.3
2018-Aug-14 14:30N 28°28' W 016°15'2 3.7
2018-Aug-14 14:00N 28°28' W 016°13'1733.8
2018-Aug-14 13:31N 28°16' W 015°59'1713.5
2018-Aug-14 12:14N 28°06' W 015°43'1729.5
2018-Aug-14 11:39N 28°17' W 015°58'430.4
2018-Aug-14 11:31N 28°19' W 016°02'1428.8
2018-Aug-14 11:01N 28°29' W 016°14'1 1.3
2018-Aug-14 10:27N 28°28' W 016°15'3 6.8
2018-Aug-14 10:01N 28°27' W 016°11'2932.8
2018-Aug-14 09:07N 28°08' W 015°46'4 4.5
2018-Aug-14 08:16N 28°06' W 015°43'1628.9
2018-Aug-14 07:44N 28°15' W 015°57'731.7
2018-Aug-14 07:30N 28°20' W 016°02'1427.1
2018-Aug-14 07:00N 28°28' W 016°15'1 1.7
2018-Aug-14 06:31N 28°29' W 016°14'1326.0
2018-Aug-14 06:00N 28°20' W 016°03'1927.3
2018-Aug-14 05:19N 28°08' W 015°46'4 0.4
2018-Aug-13 20:25N 28°06' W 015°43'1225.4
2018-Aug-13 19:57N 28°13' W 015°54'1328.7
2018-Aug-13 19:30N 28°21' W 016°05'1122.7
2018-Aug-13 19:00N 28°28' W 016°15'0 0.3
2018-Aug-13 18:31N 28°28' W 016°15'816.8
2018-Aug-13 18:00N 28°24' W 016°07'2631.7
2018-Aug-13 17:11N 28°07' W 015°44'1 1.8
2018-Aug-13 16:25N 28°06' W 015°43'1330.0
2018-Aug-13 16:00N 28°13' W 015°54'1530.1
2018-Aug-13 15:31N 28°23' W 016°07'917.2
2018-Aug-13 15:00N 28°28' W 016°15'0 0.0
2018-Aug-13 14:30N 28°28' W 016°15'2 4.7
2018-Aug-13 14:00N 28°27' W 016°13'1732.7
2018-Aug-13 13:30N 28°15' W 015°59'2 1.2
2018-Aug-13 11:42N 28°17' W 015°58'630.0
2018-Aug-13 11:31N 28°21' W 016°03'1325.4
2018-Aug-13 11:00N 28°29' W 016°14'0 0.8
2018-Aug-13 10:30N 28°28' W 016°15'612.7
2018-Aug-13 10:00N 28°24' W 016°10'3018.4
2018-Aug-13 08:24N 28°06' W 015°43'1329.7
2018-Aug-13 07:57N 28°14' W 015°54'1330.6
2018-Aug-13 07:30N 28°23' W 016°06'918.3
2018-Aug-13 07:01N 28°28' W 016°15'1 1.7
2018-Aug-13 06:31N 28°29' W 016°14'1020.9
2018-Aug-13 06:01N 28°21' W 016°06'1525.7
2018-Aug-13 05:25N 28°12' W 015°52'10 1.2
2018-Aug-12 21:07N 28°06' W 015°43'1329.0
2018-Aug-12 20:40N 28°15' W 015°53'530.8
2018-Aug-12 20:30N 28°18' W 015°57'1530.5
2018-Aug-12 20:01N 28°27' W 016°11'3 6.4
2018-Aug-12 19:30N 28°28' W 016°15'0 0.0
2018-Aug-12 19:00N 28°28' W 016°15'1 1.9
2018-Aug-12 18:30N 28°29' W 016°14'1224.0
2018-Aug-12 18:00N 28°20' W 016°04'1923.1
2018-Aug-12 17:11N 28°09' W 015°47'4 3.3
2018-Aug-12 15:54N 28°12' W 015°49'1331.8
2018-Aug-12 15:30N 28°22' W 015°60'1530.0
2018-Aug-12 15:00N 28°29' W 016°14'1 1.3
2018-Aug-12 14:30N 28°28' W 016°15'3 6.6
2018-Aug-12 14:00N 28°26' W 016°12'1631.8
2018-Aug-12 13:30N 28°15' W 015°59'9 2.9
2018-Aug-12 10:25N 28°11' W 015°49'1432.5
2018-Aug-12 10:00N 28°21' W 016°00'1529.9
2018-Aug-12 09:30N 28°29' W 016°14'1 1.1
2018-Aug-12 09:00N 28°28' W 016°15'1021.0
2018-Aug-12 08:30N 28°21' W 016°07'2232.2
2018-Aug-12 07:49N 28°08' W 015°46'3 0.3
2018-Aug-11 20:06N 28°06' W 015°43'1432.1
2018-Aug-11 19:40N 28°15' W 015°56'533.7
2018-Aug-11 19:30N 28°18' W 015°60'1633.0
2018-Aug-11 19:00N 28°29' W 016°14'1 1.8
2018-Aug-11 18:30N 28°28' W 016°15'3 6.0
2018-Aug-11 18:00N 28°26' W 016°13'1732.5
2018-Aug-11 17:29N 28°14' W 015°59'13 9.7
2018-Aug-11 16:05N 28°07' W 015°46'431.4
2018-Aug-11 15:57N 28°09' W 015°50'1432.0
2018-Aug-11 15:31N 28°19' W 016°01'1529.5
2018-Aug-11 15:00N 28°29' W 016°14'0 0.9
2018-Aug-11 14:30N 28°28' W 016°15'0 0.0
2018-Aug-11 13:59N 28°28' W 016°15'0 0.0
2018-Aug-11 13:30N 28°28' W 016°15'0 0.0
2018-Aug-11 13:00N 28°28' W 016°15'3 5.9
2018-Aug-11 12:30N 28°26' W 016°13'1632.3
2018-Aug-11 12:00N 28°16' W 015°58'1511.5
2018-Aug-11 10:41N 28°07' W 015°45'1431.0
2018-Aug-11 10:14N 28°15' W 015°57'832.0
2018-Aug-11 10:00N 28°21' W 016°03'1325.5
2018-Aug-11 09:30N 28°28' W 016°15'0 0.1
2018-Aug-11 09:01N 28°28' W 016°15'1019.1
2018-Aug-11 08:30N 28°23' W 016°06'1730.8
2018-Aug-11 07:58N 28°12' W 015°51'1 0.1
2018-Aug-10 20:08N 28°12' W 015°50'429.3
2018-Aug-10 20:00N 28°14' W 015°53'1529.9
2018-Aug-10 19:31N 28°24' W 016°06'917.4
2018-Aug-10 19:00N 28°28' W 016°15'0 0.2
2018-Aug-10 18:30N 28°28' W 016°15'815.6
2018-Aug-10 18:00N 28°22' W 016°09'16 7.5
2018-Aug-10 15:51N 28°13' W 015°54'1030.3
2018-Aug-10 15:30N 28°20' W 016°02'1427.0
2018-Aug-10 15:00N 28°28' W 016°15'0 0.6
2018-Aug-10 14:30N 28°28' W 016°15'4 8.3
2018-Aug-10 14:00N 28°26' W 016°11'1731.2
2018-Aug-10 13:28N 28°15' W 015°57'1 0.5
2018-Aug-10 11:43N 28°14' W 015°57'731.0
2018-Aug-10 11:30N 28°19' W 016°02'1529.7
2018-Aug-10 11:00N 28°29' W 016°14'1 1.1
2018-Aug-10 10:30N 28°28' W 016°15'4 8.9
2018-Aug-10 10:01N 28°26' W 016°11'1631.7
2018-Aug-10 09:30N 28°15' W 015°57'14 9.7
2018-Aug-10 08:05N 28°07' W 015°44'832.1
2018-Aug-10 07:50N 28°12' W 015°51'1132.8
2018-Aug-10 07:30N 28°19' W 016°00'1631.3
2018-Aug-10 07:00N 28°29' W 016°14'1 1.2
2018-Aug-10 06:31N 28°28' W 016°15'714.6
2018-Aug-10 06:00N 28°24' W 016°08'1729.0
2018-Aug-10 05:24N 28°12' W 015°53'3 0.3
2018-Aug-09 20:03N 28°12' W 015°50'129.3
2018-Aug-09 20:00N 28°12' W 015°51'1529.7
2018-Aug-09 19:31N 28°22' W 016°04'1223.2
2018-Aug-09 19:00N 28°28' W 016°15'0 0.2
2018-Aug-09 18:31N 28°28' W 016°15'612.3
2018-Aug-09 18:00N 28°25' W 016°09'1631.2
2018-Aug-09 17:30N 28°17' W 015°54'1411.2
2018-Aug-09 16:14N 28°06' W 015°43'1028.8
2018-Aug-09 15:53N 28°13' W 015°51'1230.3
2018-Aug-09 15:30N 28°20' W 016°01'1529.2
2018-Aug-09 15:00N 28°29' W 016°14'1 1.3
2018-Aug-09 14:30N 28°28' W 016°15'3 5.6
2018-Aug-09 14:00N 28°27' W 016°12'1932.6
2018-Aug-09 13:26N 28°14' W 015°57'2 1.3
2018-Aug-09 11:46N 28°14' W 015°54'831.5
2018-Aug-09 11:31N 28°19' W 016°01'1529.8
2018-Aug-09 11:00N 28°29' W 016°14'1 1.2
2018-Aug-09 10:30N 28°28' W 016°15'4 9.0
2018-Aug-09 10:01N 28°25' W 016°11'2032.0
2018-Aug-09 09:22N 28°12' W 015°53'8 6.5
2018-Aug-09 08:06N 28°07' W 015°46'1232.3
2018-Aug-09 07:44N 28°14' W 015°56'733.4
2018-Aug-09 07:30N 28°19' W 016°02'1428.0
2018-Aug-09 07:00N 28°28' W 016°15'0 0.7
2018-Aug-09 06:30N 28°29' W 016°14'1122.3
2018-Aug-09 06:00N 28°21' W 016°05'1326.1
2018-Aug-09 05:30N 28°12' W 015°54'10 1.1
2018-Aug-08 20:14N 28°06' W 015°45'1129.4
2018-Aug-08 19:52N 28°13' W 015°54'1130.0
2018-Aug-08 19:30N 28°21' W 016°03'1325.4
2018-Aug-08 19:00N 28°28' W 016°15'0 0.5
2018-Aug-08 18:30N 28°28' W 016°15'4 7.4
2018-Aug-08 18:00N 28°26' W 016°11'1732.0
2018-Aug-08 17:28N 28°16' W 015°56'1512.0
2018-Aug-08 16:13N 28°06' W 015°43'1029.8
2018-Aug-08 15:54N 28°13' W 015°51'1230.7
2018-Aug-08 15:31N 28°21' W 016°01'1428.3
2018-Aug-08 15:00N 28°29' W 016°14'0 0.9
2018-Aug-08 14:30N 28°28' W 016°15'4 8.5
2018-Aug-08 14:01N 28°25' W 016°12'1731.2
2018-Aug-08 13:28N 28°14' W 015°57'1531.3
2018-Aug-08 13:00N 28°06' W 015°43'10 9.5
2018-Aug-08 11:55N 28°13' W 015°52'1229.7
2018-Aug-08 11:30N 28°21' W 016°02'1326.2
2018-Aug-08 11:00N 28°29' W 016°15'0 0.8
2018-Aug-08 10:30N 28°28' W 016°15'612.8
2018-Aug-08 10:01N 28°23' W 016°11'1732.7
2018-Aug-08 09:29N 28°12' W 015°56'11 8.1
2018-Aug-08 08:08N 28°07' W 015°45'1231.2
2018-Aug-08 07:45N 28°13' W 015°56'832.3
2018-Aug-08 07:30N 28°19' W 016°02'1429.2
2018-Aug-08 07:00N 28°29' W 016°14'1 1.1
2018-Aug-08 06:30N 28°28' W 016°15'817.0
2018-Aug-08 06:01N 28°22' W 016°08'1928.8
2018-Aug-08 05:21N 28°11' W 015°51'925.3
2018-Aug-08 05:00N 28°06' W 015°43'16 1.7
2018-Aug-07 19:49N 28°16' W 015°57'929.7
2018-Aug-07 19:30N 28°22' W 016°05'1121.8
2018-Aug-07 19:00N 28°28' W 016°15'0 0.1
2018-Aug-07 18:30N 28°28' W 016°15'510.8
2018-Aug-07 18:01N 28°24' W 016°11'2232.1
2018-Aug-07 17:19N 28°11' W 015°51'9 7.5
2018-Aug-07 16:11N 28°06' W 015°43'1130.7
2018-Aug-07 15:49N 28°14' W 015°52'1032.1
2018-Aug-07 15:30N 28°20' W 016°00'1529.5
2018-Aug-07 15:00N 28°29' W 016°14'1 1.1
2018-Aug-07 14:30N 28°28' W 016°15'4 7.8
2018-Aug-07 14:01N 28°25' W 016°13'1631.5
2018-Aug-07 13:29N 28°14' W 015°59'1631.8
2018-Aug-07 13:00N 28°06' W 015°44'1 1.2
2018-Aug-07 12:20N 28°06' W 015°43'1028.6
2018-Aug-07 12:00N 28°11' W 015°52'1530.8
2018-Aug-07 11:31N 28°21' W 016°05'1122.5
2018-Aug-07 11:00N 28°28' W 016°15'0 0.0
2018-Aug-07 10:30N 28°28' W 016°15'714.4
2018-Aug-07 10:00N 28°21' W 016°12'2631.5
2018-Aug-07 09:11N 28°08' W 015°48'10 7.4
2018-Aug-07 07:50N 28°14' W 015°56'1032.2
2018-Aug-07 07:30N 28°21' W 016°04'1122.8
2018-Aug-07 07:00N 28°28' W 016°15'0 0.5
2018-Aug-07 06:30N 28°28' W 016°15'1121.4
2018-Aug-07 06:00N 28°20' W 016°07'1427.0
2018-Aug-07 05:29N 28°12' W 015°54'10 1.1
2018-Aug-06 20:12N 28°06' W 015°44'  

Dump ship's entire track history